createdAt,value
2022-08-26T00:01:54.113Z,99.40
2022-08-26T00:04:23.418Z,99.40
2022-08-26T00:06:50.350Z,99.30
2022-08-26T00:09:17.164Z,99.10
2022-08-26T00:11:44.788Z,99.10
2022-08-26T00:14:13.673Z,98.90
2022-08-26T00:16:47.466Z,98.70
2022-08-26T00:19:16.134Z,98.70
2022-08-26T00:21:43.385Z,98.50
2022-08-26T00:24:10.338Z,98.40
2022-08-26T00:26:37.435Z,98.30
2022-08-26T00:29:04.434Z,98.20
2022-08-26T00:31:31.970Z,98.10
2022-08-26T00:33:59.123Z,98.00
2022-08-26T00:36:29.603Z,98.00
2022-08-26T00:38:57.328Z,97.60
2022-08-26T00:41:24.010Z,97.60
2022-08-26T00:43:51.664Z,97.40
2022-08-26T00:46:26.842Z,97.30
2022-08-26T00:49:02.987Z,97.10
2022-08-26T00:51:30.792Z,96.80
2022-08-26T00:54:05.573Z,97.00
2022-08-26T00:56:38.108Z,96.80
2022-08-26T00:59:11.318Z,96.30
2022-08-26T01:01:41.228Z,96.30
2022-08-26T01:04:09.512Z,96.30
2022-08-26T01:06:36.574Z,96.00
2022-08-26T01:09:04.163Z,96.10
2022-08-26T01:11:32.111Z,96.10
2022-08-26T01:14:02.296Z,96.10
2022-08-26T01:16:30.174Z,96.00
2022-08-26T01:19:03.747Z,96.20
2022-08-26T01:21:56.536Z,96.20
2022-08-26T01:24:27.487Z,96.00
2022-08-26T01:26:58.511Z,95.80
2022-08-26T01:29:27.866Z,95.80
2022-08-26T01:31:56.937Z,95.90
2022-08-26T01:34:27.613Z,95.80
2022-08-26T01:37:05.453Z,95.70
2022-08-26T01:39:33.677Z,95.60
2022-08-26T01:42:03.222Z,95.90
2022-08-26T01:44:38.976Z,95.90
2022-08-26T01:47:07.762Z,96.10
2022-08-26T01:49:37.163Z,96.30
2022-08-26T01:52:05.750Z,96.50
2022-08-26T01:54:33.458Z,97.40
2022-08-26T01:57:02.504Z,97.70
2022-08-26T01:59:30.164Z,97.90
2022-08-26T02:01:57.311Z,98.10
2022-08-26T02:04:34.595Z,98.30
2022-08-26T02:07:06.470Z,98.40
2022-08-26T02:09:41.088Z,98.70
2022-08-26T02:12:10.691Z,98.80
2022-08-26T02:14:43.817Z,99.10
2022-08-26T02:17:11.597Z,99.40
2022-08-26T02:19:41.726Z,99.90
2022-08-26T02:22:14.040Z,99.90
2022-08-26T02:24:55.879Z,99.90
2022-08-26T02:27:31.972Z,99.80
2022-08-26T02:30:08.266Z,99.40
2022-08-26T02:32:35.018Z,99.30
2022-08-26T02:35:02.045Z,99.80
2022-08-26T02:37:31.207Z,99.80
2022-08-26T02:39:58.283Z,99.70
2022-08-26T02:42:25.181Z,99.30
2022-08-26T02:44:51.882Z,99.20
2022-08-26T02:47:18.546Z,98.90
2022-08-26T02:49:47.439Z,98.70
2022-08-26T02:52:14.527Z,98.80
2022-08-26T02:54:41.398Z,98.80
2022-08-26T02:57:08.332Z,98.90
2022-08-26T02:59:36.133Z,98.80
2022-08-26T03:02:03.278Z,98.70
2022-08-26T03:04:33.494Z,98.90
2022-08-26T03:07:00.203Z,98.90
2022-08-26T03:09:27.208Z,98.80
2022-08-26T03:11:55.343Z,99.00
2022-08-26T03:14:24.074Z,99.20
2022-08-26T03:16:54.010Z,99.60
2022-08-26T03:19:23.781Z,99.80
2022-08-26T03:21:51.699Z,99.90
2022-08-26T03:24:19.276Z,99.90
2022-08-26T03:26:52.334Z,99.90
2022-08-26T03:29:39.046Z,99.90
2022-08-26T03:32:06.181Z,99.90
2022-08-26T03:34:33.398Z,99.90
2022-08-26T03:37:00.211Z,99.90
2022-08-26T03:39:27.457Z,99.90
2022-08-26T03:41:58.817Z,99.90
2022-08-26T03:44:25.554Z,99.90
2022-08-26T03:46:52.404Z,99.90
2022-08-26T03:49:19.149Z,99.90
2022-08-26T03:51:45.863Z,99.90
2022-08-26T03:54:12.802Z,99.90
2022-08-26T03:56:40.106Z,99.90
2022-08-26T03:59:07.644Z,99.90
2022-08-26T04:01:35.339Z,99.90
2022-08-26T04:04:02.310Z,99.90
2022-08-26T04:06:32.700Z,99.90
2022-08-26T04:09:02.475Z,99.90
2022-08-26T04:11:34.133Z,99.90
2022-08-26T04:14:04.966Z,99.90
2022-08-26T04:16:32.890Z,99.90
2022-08-26T04:18:59.815Z,99.90
2022-08-26T04:21:27.680Z,99.90
2022-08-26T04:23:55.995Z,99.90
2022-08-26T04:26:25.403Z,99.90
2022-08-26T04:28:55.791Z,99.90
2022-08-26T04:31:22.965Z,99.90
2022-08-26T04:33:50.772Z,99.90
2022-08-26T04:36:19.819Z,99.90
2022-08-26T04:38:47.317Z,99.90
2022-08-26T04:41:14.841Z,99.90
2022-08-26T04:43:42.057Z,99.90
2022-08-26T04:46:09.662Z,99.90
2022-08-26T04:48:40.919Z,99.90
2022-08-26T04:51:09.160Z,99.90
2022-08-26T04:53:36.968Z,99.90
2022-08-26T04:56:04.444Z,99.90
2022-08-26T04:58:31.603Z,99.90
2022-08-26T05:00:58.564Z,99.90
2022-08-26T05:03:27.311Z,99.90
2022-08-26T05:05:57.910Z,99.90
2022-08-26T05:08:24.806Z,99.90
2022-08-26T05:10:55.871Z,99.90
2022-08-26T05:13:24.949Z,99.90
2022-08-26T05:15:51.744Z,99.90
2022-08-26T05:18:22.696Z,99.90
2022-08-26T05:20:54.581Z,99.90
2022-08-26T05:23:22.920Z,99.90
2022-08-26T05:25:54.685Z,99.90
2022-08-26T05:28:23.824Z,99.90
2022-08-26T05:30:51.341Z,99.90
2022-08-26T05:33:18.972Z,99.90
2022-08-26T05:35:46.438Z,99.90
2022-08-26T05:38:18.617Z,99.90
2022-08-26T05:40:49.134Z,99.90
2022-08-26T05:43:20.384Z,99.90
2022-08-26T05:45:49.371Z,99.90
2022-08-26T05:48:19.094Z,99.90
2022-08-26T05:50:52.692Z,99.90
2022-08-26T05:53:21.771Z,99.90
2022-08-26T05:55:51.778Z,99.90
2022-08-26T05:58:20.861Z,99.90
2022-08-26T06:04:02.005Z,99.90
2022-08-26T06:06:32.488Z,99.90
2022-08-26T06:09:01.388Z,99.90
2022-08-26T06:11:32.224Z,99.90
2022-08-26T06:14:03.788Z,99.90
2022-08-26T06:16:34.896Z,99.90
2022-08-26T06:19:03.506Z,99.90
2022-08-26T06:21:40.220Z,99.90
2022-08-26T06:24:28.617Z,99.90
2022-08-26T06:26:58.525Z,99.90
2022-08-26T06:29:26.712Z,99.90
2022-08-26T06:31:56.508Z,99.90
2022-08-26T06:34:29.646Z,99.90
2022-08-26T06:36:59.736Z,99.90
2022-08-26T06:39:28.414Z,99.90
2022-08-26T06:41:58.997Z,99.90
2022-08-26T06:44:27.533Z,99.90
2022-08-26T06:46:55.185Z,99.90
2022-08-26T06:49:26.689Z,99.90
2022-08-26T06:51:55.441Z,99.90
2022-08-26T06:54:22.370Z,99.90
2022-08-26T06:56:49.921Z,99.90
2022-08-26T06:59:17.888Z,99.90
2022-08-26T07:01:45.496Z,99.90
2022-08-26T07:04:20.200Z,99.90
2022-08-26T07:09:41.935Z,99.90
2022-08-26T07:12:09.705Z,99.90
2022-08-26T07:14:38.576Z,99.90
2022-08-26T07:17:10.060Z,99.90
2022-08-26T07:19:39.328Z,99.90
2022-08-26T07:22:07.199Z,99.90
2022-08-26T07:24:39.056Z,99.90
2022-08-26T07:27:09.594Z,99.90
2022-08-26T07:29:37.956Z,99.90
2022-08-26T07:32:06.128Z,99.90
2022-08-26T07:34:34.208Z,99.90
2022-08-26T07:37:02.033Z,99.90
2022-08-26T07:39:31.417Z,99.90
2022-08-26T07:42:00.360Z,99.90
2022-08-26T07:44:28.128Z,99.90
2022-08-26T07:46:55.380Z,99.90
2022-08-26T07:49:24.070Z,99.90
2022-08-26T07:51:51.543Z,99.90
2022-08-26T07:54:18.974Z,99.90
2022-08-26T07:56:52.576Z,99.90
2022-08-26T07:59:20.242Z,99.90
2022-08-26T08:01:50.102Z,99.90
2022-08-26T08:04:20.940Z,99.90
2022-08-26T08:06:52.782Z,99.90
2022-08-26T08:09:19.897Z,99.60
2022-08-26T08:11:49.909Z,99.40
2022-08-26T08:14:18.606Z,98.70
2022-08-26T08:16:49.153Z,98.30
2022-08-26T08:19:21.496Z,98.10
2022-08-26T08:21:48.757Z,98.00
2022-08-26T08:24:16.226Z,97.90
2022-08-26T08:26:43.254Z,97.50
2022-08-26T08:29:10.205Z,97.70
2022-08-26T08:31:57.025Z,97.20
2022-08-26T08:34:29.411Z,97.30
2022-08-26T08:36:57.590Z,96.90
2022-08-26T08:39:26.452Z,96.60
2022-08-26T08:42:19.296Z,96.50
2022-08-26T08:44:55.262Z,96.10
2022-08-26T08:47:37.558Z,95.80
2022-08-26T08:50:33.995Z,95.80
2022-08-26T08:53:13.123Z,96.20
2022-08-26T08:56:16.417Z,96.00
2022-08-26T08:58:57.604Z,96.20
2022-08-26T09:01:54.058Z,95.90
2022-08-26T09:08:11.252Z,96.10
2022-08-26T09:10:44.687Z,96.00
2022-08-26T09:16:23.042Z,96.20
2022-08-26T09:19:15.243Z,96.10
2022-08-26T09:24:48.471Z,96.00
2022-08-26T09:27:50.451Z,95.60
2022-08-26T09:33:19.450Z,96.60
2022-08-26T09:35:48.948Z,95.40
2022-08-26T09:38:26.695Z,95.10
2022-08-26T09:44:04.676Z,93.70
2022-08-26T09:46:33.150Z,94.30
2022-08-26T09:52:27.765Z,93.00
2022-08-26T09:55:02.479Z,92.90
2022-08-26T09:57:34.606Z,92.40
2022-08-26T10:00:02.812Z,92.50
2022-08-26T10:02:38.576Z,92.20
2022-08-26T10:05:10.431Z,92.40
2022-08-26T10:07:48.819Z,92.30
2022-08-26T10:10:27.158Z,91.90
2022-08-26T10:12:57.685Z,91.90
2022-08-26T10:15:26.493Z,92.20
2022-08-26T10:18:06.361Z,91.80
2022-08-26T10:20:38.056Z,92.10
2022-08-26T10:23:23.302Z,92.10
2022-08-26T10:26:08.632Z,91.70
2022-08-26T10:28:47.405Z,92.00
2022-08-26T10:31:27.885Z,92.00
2022-08-26T10:33:58.839Z,92.00
2022-08-26T10:37:10.568Z,92.10
2022-08-26T10:39:36.466Z,92.10
2022-08-26T10:42:10.086Z,92.00
2022-08-26T10:44:41.313Z,92.10
2022-08-26T10:47:18.516Z,92.00
2022-08-26T10:49:49.142Z,92.40
2022-08-26T10:52:45.642Z,92.80
2022-08-26T10:55:22.149Z,92.50
2022-08-26T10:58:38.647Z,92.90
2022-08-26T11:01:40.746Z,92.90
2022-08-26T11:04:07.638Z,93.00
2022-08-26T11:06:34.507Z,92.00
2022-08-26T11:09:07.283Z,90.90
2022-08-26T11:11:40.364Z,90.50
2022-08-26T11:17:12.562Z,90.40
2022-08-26T11:20:00.768Z,90.40
2022-08-26T11:25:30.206Z,90.50
2022-08-26T11:28:00.758Z,90.30
2022-08-26T11:30:43.382Z,90.50
2022-08-26T11:33:36.631Z,90.30
2022-08-26T11:36:12.079Z,89.00
2022-08-26T11:38:43.118Z,88.50
2022-08-26T11:41:17.222Z,87.50
2022-08-26T11:43:45.938Z,88.10
2022-08-26T11:46:23.910Z,87.70
2022-08-26T11:51:51.696Z,88.60
2022-08-26T11:54:32.714Z,90.00
2022-08-26T11:57:09.425Z,89.20
2022-08-26T11:59:41.412Z,87.80
2022-08-26T12:02:17.847Z,89.00
2022-08-26T12:04:49.532Z,88.00
2022-08-26T12:07:24.094Z,89.10
2022-08-26T12:09:56.284Z,88.70
2022-08-26T12:12:44.976Z,87.80
2022-08-26T12:15:19.314Z,86.30
2022-08-26T12:17:52.953Z,87.00
2022-08-26T12:23:40.783Z,86.80
2022-08-26T12:26:28.938Z,86.80
2022-08-26T12:32:19.731Z,86.90
2022-08-26T12:34:49.214Z,86.50
2022-08-26T12:37:16.785Z,85.40
2022-08-26T12:39:48.568Z,85.30
2022-08-26T12:45:08.126Z,88.00
2022-08-26T12:47:44.147Z,86.60
2022-08-26T12:50:19.633Z,87.00
2022-08-26T12:53:21.801Z,86.70
2022-08-26T12:59:23.949Z,87.00
2022-08-26T13:01:53.042Z,86.40
2022-08-26T13:04:41.956Z,86.30
2022-08-26T13:10:09.778Z,86.00
2022-08-26T13:12:37.305Z,85.40
2022-08-26T13:15:06.204Z,85.40
2022-08-26T13:17:35.188Z,85.30
2022-08-26T13:20:04.100Z,84.80
2022-08-26T13:22:31.787Z,85.90
2022-08-26T13:24:58.976Z,85.40
2022-08-26T13:27:27.470Z,86.20
2022-08-26T13:29:57.264Z,85.70
2022-08-26T13:32:27.487Z,86.50
2022-08-26T13:34:56.600Z,86.80
2022-08-26T13:37:34.586Z,86.50
2022-08-26T13:42:58.278Z,85.80
2022-08-26T13:45:25.525Z,85.90
2022-08-26T13:47:52.471Z,85.90
2022-08-26T13:50:19.516Z,89.00
2022-08-26T13:52:46.670Z,88.30
2022-08-26T13:55:13.521Z,89.40
2022-08-26T14:00:33.758Z,89.80
2022-08-26T14:03:01.219Z,89.90
2022-08-26T14:05:29.580Z,87.70
2022-08-26T14:08:00.463Z,86.00
2022-08-26T14:10:28.359Z,85.50
2022-08-26T14:12:56.839Z,85.60
2022-08-26T14:15:23.989Z,84.80
2022-08-26T14:17:52.173Z,85.90
2022-08-26T14:20:31.402Z,88.90
2022-08-26T14:25:50.063Z,92.70
2022-08-26T14:28:17.653Z,94.70
2022-08-26T14:30:54.975Z,94.30
2022-08-26T14:36:37.878Z,93.20
2022-08-26T14:39:09.271Z,93.40
2022-08-26T14:44:46.936Z,91.80
2022-08-26T14:47:15.315Z,92.40
2022-08-26T14:49:43.475Z,92.60
2022-08-26T14:52:11.036Z,92.60
2022-08-26T14:54:39.252Z,92.90
2022-08-26T14:57:15.796Z,92.90
2022-08-26T14:59:49.860Z,93.10
2022-08-26T15:02:33.776Z,93.30
2022-08-26T15:05:22.180Z,93.60
2022-08-26T15:07:56.924Z,93.90
2022-08-26T15:10:24.984Z,94.00
2022-08-26T15:12:56.146Z,93.90
2022-08-26T15:15:26.181Z,93.70
2022-08-26T15:17:55.276Z,93.80
2022-08-26T15:20:23.080Z,93.90
2022-08-26T15:26:08.796Z,93.70
2022-08-26T15:31:59.613Z,93.60
2022-08-26T15:34:27.012Z,93.80
2022-08-26T15:36:54.158Z,93.70
2022-08-26T15:39:21.694Z,93.70
2022-08-26T15:41:48.636Z,93.80
2022-08-26T15:44:17.110Z,93.70
2022-08-26T15:46:44.460Z,94.20
2022-08-26T15:49:17.542Z,94.10
2022-08-26T15:51:47.057Z,93.80
2022-08-26T15:54:19.933Z,93.90
2022-08-26T15:56:50.473Z,93.90
2022-08-26T15:59:17.412Z,94.10
2022-08-26T16:01:44.919Z,94.20
2022-08-26T16:04:12.531Z,94.30
2022-08-26T16:06:40.912Z,94.20
2022-08-26T16:09:11.153Z,94.40
2022-08-26T16:11:38.180Z,94.50
2022-08-26T16:14:05.534Z,94.70
2022-08-26T16:16:32.751Z,94.90
2022-08-26T16:19:01.355Z,95.00
2022-08-26T16:21:31.491Z,95.00
2022-08-26T16:23:58.542Z,95.00
2022-08-26T16:26:29.578Z,95.10
2022-08-26T16:28:56.420Z,95.20
2022-08-26T16:31:23.422Z,95.50
2022-08-26T16:33:51.335Z,95.60
2022-08-26T16:36:18.173Z,95.80
2022-08-26T16:41:44.433Z,96.10
2022-08-26T16:44:11.995Z,96.40
2022-08-26T16:46:39.722Z,96.60
2022-08-26T16:49:06.793Z,96.90
2022-08-26T16:51:38.086Z,97.10
2022-08-26T16:54:07.050Z,97.30
2022-08-26T16:56:34.647Z,97.60
2022-08-26T16:59:04.314Z,97.60
2022-08-26T17:01:31.323Z,98.00
2022-08-26T17:06:49.014Z,98.40
2022-08-26T17:09:16.252Z,98.80
2022-08-26T17:11:43.806Z,98.90
2022-08-26T17:14:10.765Z,99.00
2022-08-26T17:16:38.360Z,99.20
2022-08-26T17:19:06.178Z,99.40
2022-08-26T17:21:35.478Z,99.60
2022-08-26T17:24:04.176Z,99.80
2022-08-26T17:26:31.286Z,99.90
2022-08-26T17:28:58.563Z,99.90
2022-08-26T17:31:25.669Z,99.90
2022-08-26T17:33:54.245Z,99.90
2022-08-26T17:36:23.301Z,99.90
2022-08-26T17:38:55.666Z,99.90
2022-08-26T17:41:22.611Z,99.90
2022-08-26T17:43:49.837Z,99.90
2022-08-26T17:46:16.843Z,99.90
2022-08-26T17:48:43.846Z,99.90
2022-08-26T17:51:16.855Z,99.90
2022-08-26T17:53:44.200Z,99.90
2022-08-26T17:56:13.593Z,99.90
2022-08-26T17:58:51.166Z,99.90
2022-08-26T18:01:20.269Z,99.90
2022-08-26T18:03:47.585Z,99.90
2022-08-26T18:06:15.216Z,99.90
2022-08-26T18:08:42.561Z,99.90
2022-08-26T18:11:12.055Z,99.90
2022-08-26T18:13:47.062Z,99.90
2022-08-26T18:16:15.553Z,99.90
2022-08-26T18:18:43.238Z,99.90
2022-08-26T18:21:20.320Z,99.90
2022-08-26T18:23:48.084Z,99.90
2022-08-26T18:29:20.575Z,99.90
2022-08-26T18:31:48.682Z,99.90
2022-08-26T18:34:19.584Z,99.90
2022-08-26T18:36:46.838Z,99.90
2022-08-26T18:39:15.215Z,99.90
2022-08-26T18:41:45.026Z,99.90
2022-08-26T18:44:14.638Z,99.90
2022-08-26T18:46:42.500Z,99.90
2022-08-26T18:49:12.416Z,99.90
2022-08-26T18:51:39.880Z,99.90
2022-08-26T18:54:07.811Z,99.90
2022-08-26T18:56:36.730Z,99.90
2022-08-26T18:59:05.322Z,99.90
2022-08-26T19:01:33.769Z,99.90
2022-08-26T19:04:02.914Z,99.90
2022-08-26T19:06:32.929Z,99.90
2022-08-26T19:09:00.977Z,99.90
2022-08-26T19:11:31.115Z,99.90
2022-08-26T19:13:59.170Z,99.90
2022-08-26T19:16:27.276Z,99.90
2022-08-26T19:18:55.006Z,99.90
2022-08-26T19:21:23.178Z,99.90
2022-08-26T19:23:50.942Z,99.90
2022-08-26T19:26:18.607Z,99.90
2022-08-26T19:28:45.783Z,99.90
2022-08-26T19:31:13.063Z,99.90
2022-08-26T19:33:42.313Z,99.90
2022-08-26T19:36:15.905Z,99.90
2022-08-26T19:38:43.369Z,99.90
2022-08-26T19:41:19.422Z,99.90
2022-08-26T19:43:46.983Z,99.90
2022-08-26T19:46:20.254Z,99.90
2022-08-26T19:48:47.983Z,99.90
2022-08-26T19:51:24.746Z,99.90
2022-08-26T19:53:52.683Z,99.90
2022-08-26T19:56:20.797Z,99.90
2022-08-26T19:58:48.310Z,99.90
2022-08-26T20:01:16.324Z,99.90
2022-08-26T20:03:43.967Z,99.90
2022-08-26T20:09:03.019Z,99.90
2022-08-26T20:11:29.877Z,99.90
2022-08-26T20:13:57.418Z,99.90
2022-08-26T20:16:24.614Z,99.90
2022-08-26T20:19:10.379Z,99.90
2022-08-26T20:21:39.121Z,99.90
2022-08-26T20:24:09.063Z,99.90
2022-08-26T20:26:38.671Z,99.90
2022-08-26T20:29:07.363Z,99.90
2022-08-26T20:31:35.471Z,99.90
2022-08-26T20:34:02.878Z,99.90
2022-08-26T20:36:30.233Z,99.90
2022-08-26T20:38:57.796Z,99.90
2022-08-26T20:41:26.274Z,99.90
2022-08-26T20:43:54.046Z,99.90
2022-08-26T20:46:24.728Z,99.90
2022-08-26T20:48:53.343Z,99.90
2022-08-26T20:51:21.733Z,99.90
2022-08-26T20:53:48.675Z,99.90
2022-08-26T20:56:16.954Z,99.90
2022-08-26T20:58:43.896Z,99.90
2022-08-26T21:01:19.176Z,99.90
2022-08-26T21:03:46.572Z,99.90
2022-08-26T21:06:13.853Z,99.90
2022-08-26T21:08:42.660Z,99.90
2022-08-26T21:11:10.684Z,99.90
2022-08-26T21:14:03.533Z,99.90
2022-08-26T21:16:26.273Z,99.90
2022-08-26T21:18:53.455Z,99.90
2022-08-26T21:21:25.128Z,99.90
2022-08-26T21:23:52.358Z,99.90
2022-08-26T21:26:19.616Z,99.90
2022-08-26T21:28:47.585Z,99.90
2022-08-26T21:31:18.492Z,99.90
2022-08-26T21:33:45.663Z,99.90
2022-08-26T21:36:13.643Z,99.90
2022-08-26T21:38:41.704Z,99.90
2022-08-26T21:41:15.215Z,99.90
2022-08-26T21:43:43.282Z,99.90
2022-08-26T21:46:14.506Z,99.90
2022-08-26T21:48:51.019Z,99.90
2022-08-26T21:54:12.224Z,99.90
2022-08-26T21:56:46.553Z,99.90
2022-08-26T21:59:15.837Z,99.90
2022-08-26T22:01:42.791Z,99.90
2022-08-26T22:04:10.449Z,99.90
2022-08-26T22:06:57.680Z,99.90
2022-08-26T22:09:31.384Z,99.90
2022-08-26T22:12:00.060Z,99.90
2022-08-26T22:14:30.738Z,99.90
2022-08-26T22:16:59.434Z,99.90
2022-08-26T22:19:26.420Z,99.90
2022-08-26T22:21:55.417Z,99.90
2022-08-26T22:24:25.124Z,99.90
2022-08-26T22:26:53.299Z,99.90
2022-08-26T22:29:20.140Z,99.90
2022-08-26T22:31:47.230Z,99.90
2022-08-26T22:34:21.199Z,99.90
2022-08-26T22:36:49.391Z,99.90
2022-08-26T22:39:20.423Z,99.90
2022-08-26T22:41:48.831Z,99.90
2022-08-26T22:44:17.375Z,99.90
2022-08-26T22:46:48.135Z,99.90
2022-08-26T22:49:16.688Z,99.90
2022-08-26T22:51:45.479Z,99.90
2022-08-26T22:54:13.256Z,99.90
2022-08-26T22:56:41.310Z,99.90
2022-08-26T22:59:09.591Z,99.90
2022-08-26T23:01:40.051Z,99.90
2022-08-26T23:04:08.006Z,99.90
2022-08-26T23:06:39.650Z,99.90
2022-08-26T23:09:08.444Z,99.90
2022-08-26T23:11:35.782Z,99.90
2022-08-26T23:14:06.610Z,99.90
2022-08-26T23:16:39.455Z,99.90
2022-08-26T23:19:06.447Z,99.90
2022-08-26T23:21:33.417Z,99.90
2022-08-26T23:24:00.994Z,99.90
2022-08-26T23:26:28.436Z,99.90
2022-08-26T23:28:55.632Z,99.90
2022-08-26T23:31:22.384Z,99.90
2022-08-26T23:34:07.924Z,99.90
2022-08-26T23:36:34.980Z,99.90
2022-08-26T23:39:03.937Z,99.90
2022-08-26T23:41:31.020Z,99.90
2022-08-26T23:44:02.829Z,99.90
2022-08-26T23:46:30.609Z,99.90
2022-08-26T23:48:57.307Z,99.90
2022-08-26T23:51:42.857Z,99.90
2022-08-26T23:54:13.071Z,99.90
2022-08-26T23:56:40.001Z,99.90
2022-08-26T23:59:07.207Z,99.90
